Time;durP1;ratioP1;P1;durP2;ratioP2;P2;SDS_P1;SDS_P2;PMS_P1;PMS_P2;Temp;Humidity;BMP_temperature;BMP_pressure;BME280_temperature;BME280_humidity;BME280_pressure;Samples;Min_cycle;Max_cycle;Signal;HPM_P1;HPM_P2
2024/03/06 00:00:28;;;;;;;;;10.25;9.25;;;;;13.42;100.00;101099.59;2103996;28;46501;-52
2024/03/06 00:01:28;;;;;;;;;9.00;8.25;;;;;13.42;100.00;101102.25;2104319;28;48253;-53
2024/03/06 00:02:28;;;;;;;;;9.00;8.33;;;;;13.43;100.00;101098.66;2104408;28;46311;-52
2024/03/06 00:03:29;;;;;;;;;9.00;9.00;;;;;13.43;100.00;101101.34;2104992;27;46711;-53
2024/03/06 00:04:30;;;;;;;;;11.00;10.00;;;;;13.44;100.00;101100.41;2104333;28;46736;-51
2024/03/06 00:05:30;;;;;;;;;9.60;8.20;;;;;13.43;100.00;101103.13;2104154;28;47971;-51
2024/03/06 00:06:30;;;;;;;;;10.67;9.00;;;;;13.42;100.00;101096.91;2103912;28;46244;-50
2024/03/06 00:07:30;;;;;;;;;8.67;8.67;;;;;13.45;100.00;101103.94;2104220;28;46672;-53
2024/03/06 00:08:31;;;;;;;;;11.67;9.67;;;;;13.37;100.00;101104.19;2104155;28;46684;-53
2024/03/06 00:09:31;;;;;;;;;10.00;10.00;;;;;13.35;100.00;101106.00;2104349;28;46526;-51
2024/03/06 00:10:31;;;;;;;;;10.00;10.00;;;;;13.34;100.00;101103.38;2104094;27;46115;-54
2024/03/06 00:11:32;;;;;;;;;8.00;8.00;;;;;13.35;100.00;101107.81;2103500;27;46684;-54
2024/03/06 00:12:32;;;;;;;;;10.00;8.33;;;;;13.45;100.00;101112.81;2095034;28;46636;-54
2024/03/06 00:13:33;;;;;;;;;10.33;9.33;;;;;13.47;100.00;101111.03;2092909;28;45938;-56
2024/03/06 00:14:36;;;;;;;;;10.25;9.00;;;;;13.49;100.00;101108.31;2103860;28;45895;-55
2024/03/06 00:15:36;;;;;;;;;11.25;10.25;;;;;13.49;100.00;101106.50;2104371;28;46426;-55
2024/03/06 00:16:38;;;;;;;;;8.67;8.67;;;;;13.50;100.00;101113.59;2094989;28;46271;-55
2024/03/06 00:17:38;;;;;;;;;8.50;7.00;;;;;13.50;100.00;101108.25;2095051;28;46649;-53
2024/03/06 00:18:38;;;;;;;;;9.67;9.00;;;;;13.51;100.00;101114.47;2104444;28;46189;-55
2024/03/06 00:19:38;;;;;;;;;9.67;9.00;;;;;13.53;100.00;101117.97;2103586;28;45930;-53
2024/03/06 00:20:42;;;;;;;;;10.33;9.00;;;;;13.51;100.00;101114.47;2090634;28;46851;-51
2024/03/06 00:21:42;;;;;;;;;9.00;9.00;;;;;13.50;100.00;101116.25;2091034;28;46402;-52
2024/03/06 00:22:43;;;;;;;;;9.67;9.00;;;;;13.51;100.00;101118.00;2104094;27;46286;-51
2024/03/06 00:23:45;;;;;;;;;8.67;8.67;;;;;13.53;100.00;101117.97;2104092;28;47133;-52
2024/03/06 00:24:47;;;;;;;;;11.00;10.25;;;;;13.53;100.00;101117.97;2104201;27;47029;-52
2024/03/06 00:25:47;;;;;;;;;8.25;8.25;;;;;13.51;100.00;101114.47;2104156;27;46579;-54
2024/03/06 00:26:47;;;;;;;;;8.00;8.00;;;;;13.48;100.00;101118.09;2104759;28;46559;-53
2024/03/06 00:27:48;;;;;;;;;9.67;7.33;;;;;13.48;100.00;101120.75;2104042;28;46448;-52
2024/03/06 00:28:48;;;;;;;;;7.67;7.67;;;;;13.50;100.00;101120.72;2104447;28;46440;-53
2024/03/06 00:29:48;;;;;;;;;9.33;8.00;;;;;13.51;100.00;101119.78;2103898;28;46215;-54
2024/03/06 00:30:48;;;;;;;;;8.33;8.33;;;;;13.53;100.00;101116.16;2104050;28;46709;-54
2024/03/06 00:31:49;;;;;;;;;8.67;7.67;;;;;13.54;100.00;101114.38;2098928;28;46921;-52
2024/03/06 00:32:49;;;;;;;;;9.00;9.00;;;;;13.58;100.00;101124.03;2105953;27;46226;-53
2024/03/06 00:33:49;;;;;;;;;8.33;8.33;;;;;13.58;100.00;101123.16;2099310;27;46452;-53
2024/03/06 00:34:50;;;;;;;;;8.00;8.00;;;;;13.55;100.00;101124.13;2099853;28;46771;-53
2024/03/06 00:35:50;;;;;;;;;9.67;9.00;;;;;13.58;100.00;101124.03;2100370;27;46158;-54
2024/03/06 00:36:50;;;;;;;;;7.67;5.67;;;;;13.59;100.00;101124.91;2099007;28;46132;-53
2024/03/06 00:37:52;;;;;;;;;9.00;8.00;;;;;13.60;100.00;101121.34;2100174;27;46801;-54
2024/03/06 00:38:52;;;;;;;;;7.50;6.75;;;;;13.61;100.00;101125.75;2099139;28;46379;-54
2024/03/06 00:39:53;;;;;;;;;5.33;5.33;;;;;13.58;100.00;101124.03;2099533;27;46380;-52
2024/03/06 00:40:53;;;;;;;;;4.33;4.33;;;;;13.57;100.00;101119.63;2099900;27;46412;-52
2024/03/06 00:41:53;;;;;;;;;8.00;7.33;;;;;13.56;100.00;101128.53;2099506;28;46317;-53
2024/03/06 00:42:54;;;;;;;;;6.67;6.33;;;;;13.56;100.00;101131.19;2099598;27;46653;-53
2024/03/06 00:43:54;;;;;;;;;6.67;6.67;;;;;13.49;100.00;101132.31;2100031;28;46311;-52
2024/03/06 00:44:54;;;;;;;;;9.33;8.33;;;;;13.44;100.00;101124.41;2099982;28;46092;-52
2024/03/06 00:45:54;;;;;;;;;7.33;7.33;;;;;13.55;100.00;101134.78;2100810;27;46612;-53
2024/03/06 00:46:55;;;;;;;;;9.33;8.67;;;;;13.53;100.00;101131.28;2099978;28;45829;-52
2024/03/06 00:47:55;;;;;;;;;9.67;7.67;;;;;13.50;100.00;101136.72;2099063;28;46451;-53
2024/03/06 00:48:56;;;;;;;;;9.67;8.00;;;;;13.52;100.00;101134.88;2099654;28;46809;-53
2024/03/06 00:49:56;;;;;;;;;9.67;6.67;;;;;13.47;100.00;101129.69;2100198;28;46685;-53
2024/03/06 00:50:56;;;;;;;;;7.00;7.00;;;;;13.44;100.00;101129.75;2100026;27;46532;-53
2024/03/06 00:51:57;;;;;;;;;9.00;8.00;;;;;13.45;100.00;101138.59;2099572;28;46224;-55
2024/03/06 00:52:58;;;;;;;;;7.00;6.00;;;;;13.49;100.00;101138.50;2100033;27;46135;-55
2024/03/06 00:53:58;;;;;;;;;12.00;11.00;;;;;13.46;100.00;101138.56;2107855;27;46167;-54
2024/03/06 00:54:58;;;;;;;;;7.33;7.33;;;;;13.35;100.00;101135.34;2106047;27;47374;-54
2024/03/06 00:55:58;;;;;;;;;6.00;6.00;;;;;13.44;100.00;101132.41;2099675;28;45745;-55
2024/03/06 00:56:59;;;;;;;;;7.67;7.67;;;;;13.46;100.00;101140.34;2099533;27;46297;-55
2024/03/06 00:58:00;;;;;;;;;4.00;4.00;;;;;13.48;100.00;101134.09;2099353;27;46460;-52
2024/03/06 00:59:00;;;;;;;;;10.00;6.33;;;;;13.47;100.00;101143.00;2100172;28;46771;-54
2024/03/06 01:00:00;;;;;;;;;11.67;8.67;;;;;13.50;100.00;101136.72;2100742;28;45970;-54
2024/03/06 01:01:00;;;;;;;;;8.67;7.00;;;;;13.47;100.00;101137.69;2098751;28;46304;-55
2024/03/06 01:02:01;;;;;;;;;8.00;8.00;;;;;13.44;100.00;101136.88;2100006;27;46880;-53
2024/03/06 01:03:01;;;;;;;;;10.67;9.00;;;;;13.03;100.00;101140.56;2099428;28;46839;-53
2024/03/06 01:04:02;;;;;;;;;8.33;8.33;;;;;13.40;100.00;101138.75;2099310;27;46440;-55
2024/03/06 01:05:03;;;;;;;;;9.33;8.00;;;;;13.46;100.00;101135.91;2099155;28;46685;-52
2024/03/06 01:06:04;;;;;;;;;6.75;6.75;;;;;13.50;100.00;101136.72;2099347;27;46302;-53
2024/03/06 01:07:04;;;;;;;;;8.00;8.00;;;;;13.51;100.00;101135.78;2099378;28;46824;-55
2024/03/06 01:08:05;;;;;;;;;10.00;8.67;;;;;13.54;100.00;101133.91;2099301;27;46517;-54
2024/03/06 01:09:05;;;;;;;;;9.67;8.33;;;;;13.58;100.00;101134.69;2107026;27;46763;-54
2024/03/06 01:10:06;;;;;;;;;9.67;8.00;;;;;13.56;100.00;101139.19;2106486;27;46582;-54
2024/03/06 01:11:06;;;;;;;;;3.00;3.00;;;;;13.56;100.00;101131.19;2099358;28;46676;-54
2024/03/06 01:12:07;;;;;;;;;9.33;7.67;;;;;13.55;100.00;101135.66;2097941;28;46841;-53
2024/03/06 01:13:10;;;;;;;;;6.00;6.00;;;;;13.51;100.00;101138.47;2098735;27;46267;-54
2024/03/06 01:14:10;;;;;;;;;10.00;9.00;;;;;13.51;100.00;101142.00;2099252;28;46707;-55
2024/03/06 01:15:11;;;;;;;;;12.00;9.00;;;;;13.62;100.00;101140.84;2107582;27;46689;-54
2024/03/06 01:16:12;;;;;;;;;9.00;8.67;;;;;13.54;100.00;101141.03;2106195;27;46494;-55
2024/03/06 01:17:12;;;;;;;;;9.00;8.67;;;;;13.55;100.00;101143.66;2100065;28;46620;-52
2024/03/06 01:18:12;;;;;;;;;7.67;7.67;;;;;13.63;100.00;101142.59;2099914;27;46185;-53
2024/03/06 01:19:13;;;;;;;;;12.00;11.00;;;;;13.63;100.00;101147.91;2099428;28;46905;-52
2024/03/06 01:20:13;;;;;;;;;9.67;8.00;;;;;13.58;100.00;101149.81;2099285;28;46662;-54
2024/03/06 01:21:13;;;;;;;;;8.00;7.00;;;;;13.63;100.00;101145.25;2099973;28;46391;-55
2024/03/06 01:22:14;;;;;;;;;8.00;8.00;;;;;13.63;100.00;101145.25;2099985;27;46298;-53
2024/03/06 01:23:14;;;;;;;;;9.33;9.00;;;;;13.64;100.00;101149.66;2099619;28;46389;-53
2024/03/06 01:24:14;;;;;;;;;9.33;7.67;;;;;13.60;100.00;101151.56;2098642;27;46335;-51
2024/03/06 01:25:15;;;;;;;;;9.33;9.33;;;;;13.62;100.00;101149.72;2100202;28;46880;-53
2024/03/06 01:26:16;;;;;;;;;13.00;10.67;;;;;13.62;100.00;101154.19;2098846;28;46522;-55
2024/03/06 01:27:16;;;;;;;;;10.33;10.00;;;;;13.66;100.00;101150.50;2100296;28;46538;-53
2024/03/06 01:28:18;;;;;;;;;10.00;10.00;;;;;13.66;100.00;101148.69;2097126;28;46900;-53
2024/03/06 01:29:18;;;;;;;;;9.50;9.00;;;;;13.65;100.00;101151.41;2095543;28;46418;-55
2024/03/06 01:30:19;;;;;;;;;13.67;11.33;;;;;13.61;100.00;101152.44;2099471;27;46594;-54
2024/03/06 01:31:19;;;;;;;;;8.33;8.33;;;;;13.53;100.00;101147.28;2099635;28;46858;-51
2024/03/06 01:32:19;;;;;;;;;9.33;7.67;;;;;13.47;100.00;101151.00;2097883;28;46647;-55
2024/03/06 01:33:19;;;;;;;;;10.00;10.00;;;;;13.51;100.00;101150.00;2095029;28;46661;-50
2024/03/06 01:34:20;;;;;;;;;6.33;6.33;;;;;13.47;100.00;101147.47;2093059;28;46383;-50
2024/03/06 01:35:20;;;;;;;;;11.67;10.00;;;;;13.49;100.00;101149.16;2095386;28;46354;-53
2024/03/06 01:36:21;;;;;;;;;11.00;9.67;;;;;13.44;100.00;101151.06;2095195;28;45519;-53
2024/03/06 01:37:21;;;;;;;;;11.00;10.00;;;;;13.52;100.00;101151.75;2080637;28;46496;-54
2024/03/06 01:38:21;;;;;;;;;12.00;11.00;;;;;13.46;100.00;101149.22;2081229;28;46319;-52
2024/03/06 01:39:22;;;;;;;;;10.00;10.00;;;;;13.48;100.00;101143.88;2095118;28;46751;-53
2024/03/06 01:40:22;;;;;;;;;12.33;12.33;;;;;13.57;100.00;101150.75;2094983;28;46300;-53
2024/03/06 01:41:22;;;;;;;;;10.00;10.00;;;;;13.57;100.00;101146.28;2095249;28;45532;-52
2024/03/06 01:42:23;;;;;;;;;11.00;11.00;;;;;13.58;100.00;101141.81;2095073;28;46394;-50
2024/03/06 01:43:25;;;;;;;;;11.00;11.00;;;;;13.52;100.00;101143.75;2081517;28;46675;-51
2024/03/06 01:44:26;;;;;;;;;10.50;10.00;;;;;13.56;100.00;101144.53;2080768;28;46448;-50
2024/03/06 01:45:26;;;;;;;;;8.00;8.00;;;;;13.60;100.00;101145.34;2095259;28;46794;-51
2024/03/06 01:46:26;;;;;;;;;11.67;11.67;;;;;13.52;100.00;101142.88;2094189;28;46219;-52
2024/03/06 01:47:27;;;;;;;;;10.33;10.33;;;;;13.52;100.00;101142.88;2095011;28;46748;-52
2024/03/06 01:48:29;;;;;;;;;12.00;10.67;;;;;13.49;100.00;101141.16;2095429;28;46443;-52
2024/03/06 01:49:31;;;;;;;;;12.50;11.25;;;;;13.52;100.00;101145.53;2095388;28;46589;-53
2024/03/06 01:50:31;;;;;;;;;10.75;10.75;;;;;13.51;100.00;101143.78;2095246;28;46544;-52
2024/03/06 01:51:32;;;;;;;;;11.67;10.33;;;;;13.49;100.00;101148.31;2095485;28;46811;-51
2024/03/06 01:52:32;;;;;;;;;9.25;9.25;;;;;13.49;100.00;101145.63;2095212;28;46656;-53
2024/03/06 01:53:34;;;;;;;;;10.00;10.00;;;;;13.45;100.00;101142.16;2095180;28;46423;-54
2024/03/06 01:54:35;;;;;;;;;10.25;10.25;;;;;13.43;100.00;101146.66;2095352;28;46464;-54
2024/03/06 01:55:36;;;;;;;;;13.67;12.00;;;;;13.44;100.00;101143.06;2095023;28;46340;-54
2024/03/06 01:56:44;;;;;;;;;13.25;11.00;;;;;13.44;100.00;101144.88;2077211;28;46620;-52
2024/03/06 01:57:44;;;;;;;;;10.50;10.50;;;;;13.41;100.00;101145.81;2079072;28;46520;-53
2024/03/06 01:58:46;;;;;;;;;9.00;9.00;;;;;13.41;100.00;101147.63;2095337;28;46707;-54
2024/03/06 01:59:48;;;;;;;;;12.75;12.75;;;;;13.43;100.00;101144.00;2094855;28;46501;-54
2024/03/06 02:00:49;;;;;;;;;9.75;9.75;;;;;13.44;100.00;101142.19;2095291;28;46347;-54
2024/03/06 02:01:53;;;;;;;;;11.50;11.25;;;;;13.45;100.00;101144.81;2086457;28;46738;-52
2024/03/06 02:02:54;;;;;;;;;9.75;9.25;;;;;13.42;100.00;101142.25;2088885;28;47033;-55
2024/03/06 02:03:54;;;;;;;;;11.67;11.67;;;;;13.45;100.00;101143.94;2094909;28;46306;-54
2024/03/06 02:04:57;;;;;;;;;12.67;11.00;;;;;13.43;100.00;101141.31;2095385;28;46591;-53
2024/03/06 02:05:58;;;;;;;;;9.50;7.25;;;;;13.42;100.00;101138.69;2095247;28;46741;-53
2024/03/06 02:06:59;;;;;;;;;11.50;11.50;;;;;13.41;100.00;101137.81;2095055;28;46800;-52
2024/03/06 02:07:59;;;;;;;;;14.00;12.67;;;;;13.41;100.00;101135.16;2094976;28;46603;-50
2024/03/06 02:08:59;;;;;;;;;7.33;7.33;;;;;13.40;100.00;101141.41;2095626;28;46469;-52
2024/03/06 02:10:00;;;;;;;;;11.33;11.33;;;;;13.43;100.00;101141.31;2094925;28;47272;-52
2024/03/06 02:11:02;;;;;;;;;9.67;9.67;;;;;13.43;100.00;101143.13;2095538;28;46392;-52
2024/03/06 02:12:03;;;;;;;;;12.75;12.75;;;;;13.41;100.00;101143.16;2094888;28;46761;-50
2024/03/06 02:13:03;;;;;;;;;12.67;11.00;;;;;13.39;100.00;101145.00;2081227;28;46818;-52
2024/03/06 02:14:06;;;;;;;;;16.33;13.67;;;;;13.45;100.00;101143.94;2081284;28;46549;-53
2024/03/06 02:15:08;;;;;;;;;13.25;12.00;;;;;13.43;100.00;101144.00;2078477;28;46460;-50
2024/03/06 02:16:10;;;;;;;;;12.50;12.50;;;;;13.44;100.00;101145.72;2079573;28;46749;-53
2024/03/06 02:17:10;;;;;;;;;14.40;14.40;;;;;13.45;100.00;101147.47;2096600;28;46584;-52
2024/03/06 02:18:10;;;;;;;;;12.67;12.00;;;;;13.41;100.00;101144.94;2088056;28;46310;-52
2024/03/06 02:19:11;;;;;;;;;16.67;14.67;;;;;13.42;100.00;101152.03;2087962;28;45933;-50
2024/03/06 02:20:14;;;;;;;;;17.25;13.25;;;;;13.41;100.00;101151.16;2096469;28;46806;-52
2024/03/06 02:21:14;;;;;;;;;18.00;16.00;;;;;13.44;100.00;101152.84;2096301;28;46844;-52
2024/03/06 02:22:14;;;;;;;;;14.75;14.50;;;;;13.45;100.00;101146.59;2096439;28;46615;-55
2024/03/06 02:23:17;;;;;;;;;17.00;14.00;;;;;13.37;100.00;101152.16;2096482;28;46598;-52
2024/03/06 02:24:17;;;;;;;;;12.50;12.50;;;;;13.40;100.00;101148.53;2096750;28;46872;-53
2024/03/06 02:25:19;;;;;;;;;16.00;15.00;;;;;13.40;100.00;101151.19;2096995;28;46639;-53
2024/03/06 02:26:20;;;;;;;;;14.75;14.75;;;;;13.38;100.00;101145.03;2096159;28;46734;-51
2024/03/06 02:27:21;;;;;;;;;17.40;14.40;;;;;13.42;100.00;101147.56;2096230;28;46735;-53
2024/03/06 02:28:21;;;;;;;;;17.00;15.00;;;;;13.43;100.00;101149.31;2081732;28;46398;-53
2024/03/06 02:29:23;;;;;;;;;14.33;12.67;;;;;13.43;100.00;101148.44;2083198;28;46175;-51
2024/03/06 02:30:24;;;;;;;;;19.20;17.40;;;;;13.43;100.00;101153.78;2095511;28;46668;-52
2024/03/06 02:31:24;;;;;;;;;14.67;13.33;;;;;13.41;100.00;101144.94;2095438;28;46677;-53
2024/03/06 02:32:25;;;;;;;;;14.75;14.25;;;;;13.36;100.00;101142.41;2096162;28;46493;-53
2024/03/06 02:33:25;;;;;;;;;17.25;13.50;;;;;13.35;100.00;101145.13;2096599;28;46556;-52
2024/03/06 02:34:25;;;;;;;;;17.00;17.00;;;;;13.33;100.00;101147.81;2096174;28;46248;-52
2024/03/06 02:35:26;;;;;;;;;14.00;14.00;;;;;13.32;100.00;101153.19;2095019;28;46512;-51
2024/03/06 02:36:26;;;;;;;;;11.25;11.25;;;;;13.37;100.00;101153.94;2096307;28;46285;-54
2024/03/06 02:37:26;;;;;;;;;17.75;17.75;;;;;13.41;100.00;101155.63;2096141;28;47186;-52
2024/03/06 02:38:27;;;;;;;;;16.00;15.00;;;;;13.31;100.00;101154.09;2081526;28;46245;-51
2024/03/06 02:39:27;;;;;;;;;20.25;14.75;;;;;13.34;100.00;101149.59;2082613;28;46781;-53
2024/03/06 02:40:28;;;;;;;;;18.00;17.00;;;;;13.41;100.00;101153.81;2095586;28;46848;-54
2024/03/06 02:41:30;;;;;;;;;17.00;15.80;;;;;13.36;100.00;101152.22;2096127;28;47239;-52
2024/03/06 02:42:30;;;;;;;;;17.80;14.40;;;;;13.41;100.00;101153.81;2096568;28;46432;-54
2024/03/06 02:43:30;;;;;;;;;17.50;17.50;;;;;13.43;100.00;101146.66;2095809;28;46286;-55
2024/03/06 02:44:31;;;;;;;;;17.25;14.50;;;;;13.47;100.00;101147.47;2096519;28;46644;-52
2024/03/06 02:45:31;;;;;;;;;13.50;13.50;;;;;13.42;100.00;101152.91;2096671;28;46554;-54
2024/03/06 02:46:31;;;;;;;;;20.50;17.75;;;;;13.42;100.00;101149.38;2087334;28;46756;-54
2024/03/06 02:47:32;;;;;;;;;14.50;13.75;;;;;13.42;100.00;101146.69;2087091;28;46462;-52
2024/03/06 02:48:32;;;;;;;;;16.25;16.25;;;;;13.46;100.00;101149.22;2096151;28;46368;-52
2024/03/06 02:49:32;;;;;;;;;20.75;17.00;;;;;13.47;100.00;101152.81;2095896;28;46297;-53
2024/03/06 02:50:33;;;;;;;;;18.75;18.75;;;;;13.46;100.00;101143.91;2095287;28;46375;-54
2024/03/06 02:51:33;;;;;;;;;16.25;16.25;;;;;13.43;100.00;101154.66;2096326;28;45874;-53
2024/03/06 02:52:33;;;;;;;;;18.50;18.50;;;;;13.41;100.00;101151.16;2096737;28;46312;-53
2024/03/06 02:53:34;;;;;;;;;21.00;18.50;;;;;13.41;100.00;101145.81;2096624;28;45654;-54
2024/03/06 02:54:34;;;;;;;;;23.25;23.25;;;;;13.40;100.00;101146.75;2096610;28;45984;-51
2024/03/06 02:55:34;;;;;;;;;19.25;18.00;;;;;13.39;100.00;101147.66;2096203;28;46174;-53
2024/03/06 02:56:35;;;;;;;;;23.25;22.00;;;;;13.40;100.00;101148.53;2096137;28;46791;-51
2024/03/06 02:57:35;;;;;;;;;22.50;19.50;;;;;13.43;100.00;101148.44;2096504;28;47050;-52
2024/03/06 02:58:35;;;;;;;;;17.75;15.25;;;;;13.46;100.00;101145.69;2096326;28;46630;-54
2024/03/06 02:59:36;;;;;;;;;17.25;16.50;;;;;13.45;100.00;101146.59;2096184;28;46758;-50
2024/03/06 03:00:36;;;;;;;;;21.75;18.50;;;;;13.41;100.00;101153.81;2096598;28;46302;-53
2024/03/06 03:01:36;;;;;;;;;20.00;20.00;;;;;13.44;100.00;101150.19;2095847;28;46267;-51
2024/03/06 03:02:38;;;;;;;;;19.00;19.00;;;;;13.47;100.00;101155.47;2096312;28;47375;-52
2024/03/06 03:03:41;;;;;;;;;19.80;18.00;;;;;13.45;100.00;101155.47;2096423;28;47198;-50
2024/03/06 03:04:41;;;;;;;;;20.00;18.40;;;;;13.45;100.00;101154.59;2096066;28;46797;-54
2024/03/06 03:05:41;;;;;;;;;20.00;18.50;;;;;13.41;100.00;101156.50;2095993;28;46508;-54
2024/03/06 03:06:42;;;;;;;;;23.50;20.75;;;;;13.37;100.00;101160.16;2095439;28;45276;-51
2024/03/06 03:07:42;;;;;;;;;19.00;18.00;;;;;13.36;100.00;101162.88;2096353;28;47094;-54
2024/03/06 03:08:43;;;;;;;;;22.25;19.75;;;;;13.39;100.00;101157.44;2096445;28;45834;-53
2024/03/06 03:09:43;;;;;;;;;22.25;22.00;;;;;13.38;100.00;101153.91;2096319;28;46332;-53
2024/03/06 03:10:44;;;;;;;;;21.25;17.00;;;;;13.37;100.00;101151.28;2096290;28;46763;-54
2024/03/06 03:11:45;;;;;;;;;23.20;21.80;;;;;13.35;100.00;101155.78;2086880;28;46223;-54
2024/03/06 03:12:45;;;;;;;;;22.00;20.50;;;;;13.30;100.00;101161.22;2087154;28;46355;-51
2024/03/06 03:13:45;;;;;;;;;20.25;20.00;;;;;13.32;100.00;101155.84;2096250;28;46277;-51
2024/03/06 03:14:46;;;;;;;;;19.25;17.25;;;;;13.32;100.00;101161.19;2095917;28;47475;-52
2024/03/06 03:15:48;;;;;;;;;20.75;18.75;;;;;13.33;100.00;101161.13;2095339;28;47342;-53
2024/03/06 03:16:48;;;;;;;;;22.20;19.40;;;;;13.35;100.00;101163.78;2096373;28;46950;-51
2024/03/06 03:17:48;;;;;;;;;22.25;19.75;;;;;13.38;100.00;101164.56;2096373;28;46684;-54
2024/03/06 03:18:49;;;;;;;;;20.50;18.75;;;;;13.36;100.00;101166.41;2096122;28;46629;-54
2024/03/06 03:19:49;;;;;;;;;22.00;20.50;;;;;13.34;100.00;101162.91;2096034;28;46564;-52
2024/03/06 03:20:49;;;;;;;;;23.25;20.00;;;;;13.35;100.00;101161.13;2095763;28;46629;-54
2024/03/06 03:21:50;;;;;;;;;21.50;19.75;;;;;13.35;100.00;101167.31;2096053;28;46665;-53
2024/03/06 03:22:50;;;;;;;;;14.00;13.25;;;;;13.36;100.00;101165.53;2094815;28;46358;-50
2024/03/06 03:23:50;;;;;;;;;22.00;19.50;;;;;13.39;100.00;101169.00;2095847;28;46331;-53
2024/03/06 03:24:51;;;;;;;;;21.75;20.00;;;;;13.37;100.00;101167.28;2094867;28;46719;-50
2024/03/06 03:25:51;;;;;;;;;20.75;19.75;;;;;13.42;100.00;101170.69;2095960;28;46602;-53
2024/03/06 03:26:52;;;;;;;;;20.00;19.75;;;;;13.41;100.00;101166.28;2096147;28;46585;-60
2024/03/06 03:27:52;;;;;;;;;19.20;19.20;;;;;13.40;100.00;101164.53;2095489;28;46199;-53
2024/03/06 03:28:53;;;;;;;;;23.00;20.25;;;;;13.33;100.00;101174.47;2094912;28;46239;-52
2024/03/06 03:29:53;;;;;;;;;19.50;19.50;;;;;13.29;100.00;101169.25;2096521;28;46680;-53
2024/03/06 03:30:53;;;;;;;;;20.75;20.75;;;;;13.29;100.00;101167.47;2095879;28;46618;-52
2024/03/06 03:31:54;;;;;;;;;24.25;22.00;;;;;13.32;100.00;101171.84;2096055;28;46766;-53
2024/03/06 03:32:54;;;;;;;;;18.00;15.75;;;;;13.37;100.00;101170.81;2103345;28;46759;-52
2024/03/06 03:33:55;;;;;;;;;22.50;21.75;;;;;13.36;100.00;101166.41;2103869;28;46651;-54
2024/03/06 03:34:55;;;;;;;;;20.75;19.75;;;;;13.33;100.00;101169.13;2104356;28;46225;-53
2024/03/06 03:35:55;;;;;;;;;13.50;12.50;;;;;13.42;100.00;101171.56;2103881;28;46220;-52
2024/03/06 03:36:56;;;;;;;;;21.50;20.25;;;;;13.43;100.00;101170.66;2103136;28;46785;-54
2024/03/06 03:37:57;;;;;;;;;20.00;20.00;;;;;13.46;100.00;101164.34;2093897;28;46398;-54
2024/03/06 03:38:57;;;;;;;;;21.75;20.25;;;;;13.46;100.00;101167.03;2090550;28;46676;-54
2024/03/06 03:39:57;;;;;;;;;17.75;17.00;;;;;13.44;100.00;101171.53;2103814;28;47141;-52
2024/03/06 03:40:58;;;;;;;;;20.50;20.00;;;;;13.45;100.00;101170.59;2103197;28;46682;-52
2024/03/06 03:41:58;;;;;;;;;19.25;16.50;;;;;13.50;100.00;101166.91;2103909;28;46360;-54
2024/03/06 03:42:58;;;;;;;;;19.75;18.25;;;;;13.50;100.00;101161.59;2104210;28;46482;-53
2024/03/06 03:43:59;;;;;;;;;20.50;19.75;;;;;13.52;100.00;101169.53;2103608;28;46521;-53
2024/03/06 03:44:59;;;;;;;;;23.75;21.75;;;;;13.50;100.00;101168.72;2103885;28;46789;-52
2024/03/06 03:45:59;;;;;;;;;21.00;20.00;;;;;13.51;100.00;101168.66;2103947;28;46351;-56
2024/03/06 03:47:00;;;;;;;;;25.25;20.25;;;;;13.49;100.00;101165.16;2103842;28;46072;-54
2024/03/06 03:48:02;;;;;;;;;21.50;20.25;;;;;13.52;100.00;101167.75;2104288;28;46240;-53
2024/03/06 03:49:03;;;;;;;;;19.20;19.20;;;;;13.51;100.00;101168.66;2103673;28;46758;-52
2024/03/06 03:50:03;;;;;;;;;18.25;16.25;;;;;13.49;100.00;101166.97;2103629;28;46620;-54
2024/03/06 03:51:04;;;;;;;;;24.00;24.00;;;;;13.50;100.00;101166.03;2104380;28;45989;-52
2024/03/06 03:52:05;;;;;;;;;23.00;21.20;;;;;13.50;100.00;101163.38;2103549;28;46551;-54
2024/03/06 03:53:05;;;;;;;;;29.50;23.25;;;;;13.48;100.00;101168.75;2104055;28;46263;-55
2024/03/06 03:54:06;;;;;;;;;25.00;23.50;;;;;13.51;100.00;101171.34;2101530;28;46855;-52
2024/03/06 03:55:07;;;;;;;;;23.60;21.20;;;;;13.48;100.00;101170.53;2104059;28;46600;-53
2024/03/06 03:56:07;;;;;;;;;22.80;22.00;;;;;13.47;100.00;101167.00;2103190;28;46762;-52
2024/03/06 03:57:08;;;;;;;;;21.75;21.75;;;;;13.47;100.00;101177.66;2104479;28;45017;-53
2024/03/06 03:58:08;;;;;;;;;30.00;26.00;;;;;13.47;100.00;101172.34;2103060;28;46575;-53
2024/03/06 03:59:08;;;;;;;;;28.25;26.00;;;;;13.46;100.00;101169.69;2104483;28;45011;-53
2024/03/06 04:00:10;;;;;;;;;31.25;25.00;;;;;13.45;100.00;101166.16;2103979;28;46361;-54
2024/03/06 04:01:11;;;;;;;;;31.60;27.80;;;;;13.47;100.00;101167.00;2104066;28;46584;-53
2024/03/06 04:02:11;;;;;;;;;29.00;24.00;;;;;13.46;100.00;101181.22;2104049;28;46186;-53
2024/03/06 04:03:12;;;;;;;;;28.00;27.50;;;;;13.43;100.00;101173.31;2103040;28;47311;-53
2024/03/06 04:04:13;;;;;;;;;26.00;24.75;;;;;13.46;100.00;101173.22;2103480;28;46081;-54
2024/03/06 04:05:14;;;;;;;;;34.00;30.50;;;;;13.45;100.00;101176.81;2103928;28;46265;-53
2024/03/06 04:06:14;;;;;;;;;30.60;28.80;;;;;13.47;100.00;101176.81;2103162;28;46791;-55
2024/03/06 04:07:16;;;;;;;;;31.50;29.25;;;;;13.37;100.00;101180.63;2104119;28;46596;-54
2024/03/06 04:08:16;;;;;;;;;31.80;30.20;;;;;13.48;100.00;101183.88;2103593;28;46672;-55
2024/03/06 04:09:16;;;;;;;;;37.75;32.75;;;;;13.48;100.00;101181.22;2103665;28;46469;-52
2024/03/06 04:10:17;;;;;;;;;37.75;32.25;;;;;13.49;100.00;101182.97;2103949;28;46408;-52
2024/03/06 04:11:17;;;;;;;;;33.00;31.75;;;;;13.46;100.00;101183.00;2092461;28;46185;-52
2024/03/06 04:12:18;;;;;;;;;32.00;29.00;;;;;13.30;100.00;101181.66;2094262;28;46509;-54
2024/03/06 04:13:20;;;;;;;;;31.25;29.25;;;;;13.28;100.00;101183.50;2093123;28;46825;-54
2024/03/06 04:14:20;;;;;;;;;34.40;31.60;;;;;13.36;100.00;101193.06;2094106;28;46610;-51
2024/03/06 04:15:21;;;;;;;;;31.00;28.50;;;;;13.34;100.00;101189.56;2103878;28;46335;-54
2024/03/06 04:16:22;;;;;;;;;38.40;31.20;;;;;13.35;100.00;101188.66;2103205;28;46741;-50
2024/03/06 04:17:22;;;;;;;;;34.50;31.00;;;;;13.35;100.00;101190.44;2103658;28;46489;-52
2024/03/06 04:18:22;;;;;;;;;37.00;31.00;;;;;13.33;100.00;101197.56;2104354;28;46236;-51
2024/03/06 04:19:23;;;;;;;;;32.75;30.00;;;;;13.24;100.00;101193.38;2099956;28;46474;-53
2024/03/06 04:20:23;;;;;;;;;36.75;32.75;;;;;13.14;100.00;101184.69;2103575;28;46711;-53
2024/03/06 04:21:23;;;;;;;;;32.75;30.75;;;;;13.27;100.00;101187.97;2102926;28;46640;-53
2024/03/06 04:22:24;;;;;;;;;36.50;30.00;;;;;13.25;100.00;101190.66;2104017;28;46592;-52
2024/03/06 04:23:24;;;;;;;;;34.50;31.75;;;;;13.22;100.00;101189.88;2103683;28;46800;-54
2024/03/06 04:24:24;;;;;;;;;37.00;32.25;;;;;13.19;100.00;101182.81;2103576;28;46630;-54
2024/03/06 04:25:25;;;;;;;;;31.50;30.50;;;;;13.16;100.00;101189.97;2103788;28;46572;-53
2024/03/06 04:26:25;;;;;;;;;36.75;32.50;;;;;13.15;100.00;101188.22;2083846;28;45744;-51
2024/03/06 04:27:26;;;;;;;;;35.25;28.50;;;;;13.18;100.00;101190.81;2085762;28;46498;-51
2024/03/06 04:28:26;;;;;;;;;35.00;30.00;;;;;13.16;100.00;101189.97;2103819;28;46867;-54
2024/03/06 04:29:27;;;;;;;;;38.00;31.25;;;;;13.23;100.00;101192.50;2104533;28;46239;-51
2024/03/06 04:30:27;;;;;;;;;34.75;29.75;;;;;13.26;100.00;101194.22;2102667;28;46181;-54
2024/03/06 04:31:27;;;;;;;;;38.75;29.75;;;;;13.27;100.00;101198.63;2102940;28;46805;-53
2024/03/06 04:32:28;;;;;;;;;34.00;29.00;;;;;13.29;100.00;101198.56;2106318;27;46841;-54
2024/03/06 04:33:28;;;;;;;;;32.50;30.50;;;;;13.22;100.00;101196.09;2108933;27;46795;-52
2024/03/06 04:34:28;;;;;;;;;34.25;30.25;;;;;13.24;100.00;101198.72;2108990;27;46594;-54